Time;durP1;ratioP1;P1;durP2;ratioP2;P2;SDS_P1;SDS_P2;PMS_P1;PMS_P2;Temp;Humidity;BMP_temperature;BMP_pressure;BME280_temperature;BME280_humidity;BME280_pressure;Samples;Min_cycle;Max_cycle;Signal;HPM_P1;HPM_P2
2023/06/19 00:00:56;;;;;;;0.10;0.10;;;24.60;99.90;;;;;;5041340;28;20209;-81
2023/06/19 00:03:21;;;;;;;0.10;0.10;;;24.50;99.90;;;;;;5042017;28;20194;-81
2023/06/19 00:05:47;;;;;;;0.10;0.10;;;24.40;99.90;;;;;;5041986;28;20312;-81
2023/06/19 00:08:12;;;;;;;0.10;0.10;;;24.30;99.90;;;;;;5042615;28;20651;-81
2023/06/19 00:10:38;;;;;;;0.10;0.10;;;24.30;99.90;;;;;;5043268;28;20260;-81
2023/06/19 00:13:03;;;;;;;0.10;0.10;;;24.20;99.90;;;;;;5040949;28;20213;-81
2023/06/19 00:15:29;;;;;;;0.10;0.10;;;24.10;99.90;;;;;;5040888;28;20217;-81
2023/06/19 00:17:59;;;;;;;0.10;0.10;;;24.10;99.90;;;;;;5042211;28;20247;-81
2023/06/19 00:20:25;;;;;;;0.10;0.10;;;24.00;99.90;;;;;;5040359;28;20313;-81
2023/06/19 00:22:51;;;;;;;0.10;0.10;;;23.80;99.90;;;;;;5041062;28;20198;-81
2023/06/19 00:25:19;;;;;;;0.10;0.10;;;23.70;99.90;;;;;;5040771;28;20220;-81
2023/06/19 00:27:45;;;;;;;0.10;0.10;;;23.70;99.90;;;;;;5041381;28;20182;-81
2023/06/19 00:30:11;;;;;;;0.10;0.10;;;23.60;99.90;;;;;;5041119;28;20197;-81
2023/06/19 00:32:46;;;;;;;0.10;0.10;;;23.50;99.90;;;;;;5040006;28;20194;-81
2023/06/19 00:35:15;;;;;;;0.10;0.10;;;23.40;99.90;;;;;;5040940;28;20181;-80
2023/06/19 00:37:44;;;;;;;0.10;0.10;;;23.30;99.90;;;;;;5040576;28;20211;-80
2023/06/19 00:40:21;;;;;;;1.07;1.00;;;23.20;99.90;;;;;;5042003;28;20228;-81
2023/06/19 00:42:46;;;;;;;0.10;0.10;;;23.20;99.90;;;;;;5040095;28;20223;-81
2023/06/19 00:45:12;;;;;;;0.10;0.10;;;23.20;99.90;;;;;;5042452;28;20214;-81
2023/06/19 00:47:38;;;;;;;0.10;0.10;;;23.20;99.90;;;;;;5042551;28;20181;-81
2023/06/19 00:50:04;;;;;;;0.10;0.10;;;23.20;99.90;;;;;;5044004;28;20206;-81
2023/06/19 00:52:30;;;;;;;0.10;0.10;;;23.20;99.90;;;;;;5053728;28;20769;-81
2023/06/19 00:54:56;;;;;;;0.10;0.10;;;23.20;99.90;;;;;;5043321;28;20217;-81
2023/06/19 00:57:22;;;;;;;0.10;0.10;;;23.20;99.90;;;;;;5046196;28;20186;-81
2023/06/19 00:59:47;;;;;;;0.10;0.10;;;22.90;99.90;;;;;;5046522;28;20278;-81
2023/06/19 01:02:13;;;;;;;0.10;0.10;;;22.70;99.90;;;;;;5045520;28;20618;-81
2023/06/19 01:04:39;;;;;;;0.10;0.10;;;22.80;99.90;;;;;;5043695;28;20203;-81
2023/06/19 01:07:14;;;;;;;0.10;0.10;;;22.70;99.90;;;;;;5042001;28;20195;-81
2023/06/19 01:09:52;;;;;;;0.10;0.10;;;22.70;99.90;;;;;;5042191;28;20871;-81
2023/06/19 01:12:28;;;;;;;0.10;0.10;;;22.80;99.90;;;;;;5052954;28;20264;-81
2023/06/19 01:14:58;;;;;;;0.10;0.10;;;23.00;99.90;;;;;;5043682;28;20177;-81
2023/06/19 01:17:26;;;;;;;0.10;0.10;;;22.90;99.90;;;;;;5058498;28;20186;-81
2023/06/19 01:19:51;;;;;;;0.10;0.10;;;22.80;99.90;;;;;;5041814;28;20208;-81
2023/06/19 01:22:30;;;;;;;0.10;0.10;;;22.80;99.90;;;;;;5044032;28;20193;-81
2023/06/19 01:24:56;;;;;;;0.10;0.10;;;22.90;99.90;;;;;;5043791;28;20205;-81
2023/06/19 01:27:25;;;;;;;0.10;0.10;;;23.10;99.90;;;;;;5043670;28;20182;-81
2023/06/19 01:29:51;;;;;;;0.10;0.10;;;23.20;99.90;;;;;;5045522;28;20201;-81
2023/06/19 01:32:32;;;;;;;0.10;0.10;;;23.30;99.90;;;;;;5042007;28;20643;-81
2023/06/19 01:34:59;;;;;;;0.10;0.10;;;23.30;99.90;;;;;;5043529;28;20223;-81
2023/06/19 01:37:28;;;;;;;0.10;0.10;;;23.30;99.90;;;;;;5044415;28;20239;-81
2023/06/19 01:39:56;;;;;;;0.10;0.10;;;23.10;99.90;;;;;;5043720;28;20206;-81
2023/06/19 01:42:22;;;;;;;0.10;0.10;;;22.90;99.90;;;;;;5041159;28;20215;-81
2023/06/19 01:44:49;;;;;;;0.10;0.10;;;23.00;99.90;;;;;;5043205;28;20186;-81
2023/06/19 01:47:19;;;;;;;0.10;0.10;;;23.00;99.90;;;;;;5043119;28;20225;-81
2023/06/19 01:49:45;;;;;;;0.10;0.10;;;23.10;99.90;;;;;;5042175;28;20284;-81
2023/06/19 01:52:11;;;;;;;0.10;0.10;;;23.00;99.90;;;;;;5042906;28;20182;-81
2023/06/19 01:54:37;;;;;;;0.10;0.10;;;22.80;99.90;;;;;;5044598;28;21038;-81
2023/06/19 01:57:02;;;;;;;0.10;0.10;;;22.70;99.90;;;;;;5041055;28;20186;-81
2023/06/19 01:59:28;;;;;;;0.10;0.10;;;22.70;99.90;;;;;;5042744;28;20263;-81
2023/06/19 02:01:53;;;;;;;0.10;0.10;;;22.60;99.90;;;;;;5043117;28;20182;-81
2023/06/19 02:04:19;;;;;;;0.10;0.10;;;22.50;99.90;;;;;;5044477;28;20185;-81
2023/06/19 02:06:44;;;;;;;0.10;0.10;;;22.50;99.90;;;;;;5043465;28;20212;-81
2023/06/19 02:09:10;;;;;;;0.10;0.10;;;22.40;99.90;;;;;;5042364;28;20205;-81
2023/06/19 02:11:36;;;;;;;0.10;0.10;;;22.40;99.90;;;;;;5043217;28;20193;-81
2023/06/19 02:14:01;;;;;;;0.10;0.10;;;22.40;99.90;;;;;;5043892;28;20185;-81
2023/06/19 02:16:27;;;;;;;0.10;0.10;;;22.40;99.90;;;;;;5043681;28;21030;-81
2023/06/19 02:18:52;;;;;;;0.10;0.10;;;22.40;99.90;;;;;;5041792;28;20201;-81
2023/06/19 02:21:18;;;;;;;0.10;0.10;;;22.40;99.90;;;;;;5042547;28;20186;-81
2023/06/19 02:23:43;;;;;;;0.10;0.10;;;22.30;99.90;;;;;;5044588;28;20670;-81
2023/06/19 02:26:09;;;;;;;0.10;0.10;;;22.30;99.90;;;;;;5043178;28;20212;-81
2023/06/19 02:28:35;;;;;;;0.10;0.10;;;22.30;99.90;;;;;;5043123;28;20193;-81
2023/06/19 02:31:00;;;;;;;0.10;0.10;;;22.30;99.90;;;;;;5042263;28;20197;-81
2023/06/19 02:33:26;;;;;;;0.10;0.10;;;22.30;99.90;;;;;;5042058;28;20193;-81
2023/06/19 02:35:51;;;;;;;0.10;0.10;;;22.30;99.90;;;;;;5043816;28;20204;-81
2023/06/19 02:38:21;;;;;;;0.10;0.10;;;22.30;99.90;;;;;;5041991;28;20267;-81
2023/06/19 02:40:46;;;;;;;0.10;0.10;;;22.30;99.90;;;;;;5041812;28;20570;-81
2023/06/19 02:43:12;;;;;;;0.10;0.10;;;22.30;99.90;;;;;;5044530;28;20192;-81
2023/06/19 02:45:37;;;;;;;0.10;0.10;;;22.30;99.90;;;;;;5042271;28;20683;-81
2023/06/19 02:48:04;;;;;;;0.10;0.10;;;22.30;99.90;;;;;;5040642;28;20646;-81
2023/06/19 02:50:30;;;;;;;0.10;0.10;;;22.30;99.90;;;;;;5041962;28;20208;-81
2023/06/19 02:52:55;;;;;;;0.10;0.10;;;22.30;99.90;;;;;;5039982;28;20181;-81
2023/06/19 02:55:21;;;;;;;0.10;0.10;;;22.30;99.90;;;;;;5043380;28;20221;-81
2023/06/19 02:57:47;;;;;;;0.10;0.10;;;22.30;99.90;;;;;;5043686;28;20193;-81
2023/06/19 03:00:13;;;;;;;0.10;0.10;;;22.20;99.90;;;;;;5041842;28;20559;-81
2023/06/19 03:02:43;;;;;;;0.10;0.10;;;22.20;99.90;;;;;;5039891;28;20277;-81
2023/06/19 03:05:09;;;;;;;0.10;0.10;;;22.20;99.90;;;;;;5043610;28;20217;-81
2023/06/19 03:07:35;;;;;;;0.10;0.10;;;22.20;99.90;;;;;;5042197;28;20536;-81
2023/06/19 03:10:00;;;;;;;0.10;0.10;;;22.20;99.90;;;;;;5041288;28;20691;-81
2023/06/19 03:12:26;;;;;;;0.10;0.10;;;22.30;99.90;;;;;;5044311;28;20694;-81
2023/06/19 03:14:51;;;;;;;0.10;0.10;;;22.30;99.90;;;;;;5043208;28;20839;-81
2023/06/19 03:17:17;;;;;;;0.10;0.10;;;22.30;99.90;;;;;;5044174;28;20285;-82
2023/06/19 03:19:42;;;;;;;0.10;0.10;;;22.30;99.90;;;;;;5041188;28;21172;-82
2023/06/19 03:22:08;;;;;;;0.10;0.10;;;22.20;99.90;;;;;;5040083;28;20231;-82
2023/06/19 03:24:33;;;;;;;0.10;0.10;;;22.20;99.90;;;;;;5042398;28;20531;-82
2023/06/19 03:26:59;;;;;;;0.10;0.10;;;22.10;99.90;;;;;;5042577;28;20288;-82
2023/06/19 03:29:27;;;;;;;0.10;0.10;;;22.10;99.90;;;;;;5041707;28;20205;-82
2023/06/19 03:31:53;;;;;;;0.10;0.10;;;22.10;99.90;;;;;;5044400;28;20180;-82
2023/06/19 03:34:18;;;;;;;0.10;0.10;;;22.00;99.90;;;;;;5043386;28;20198;-82
2023/06/19 03:36:44;;;;;;;0.10;0.10;;;22.00;99.90;;;;;;5040336;28;20192;-82
2023/06/19 03:39:10;;;;;;;0.10;0.10;;;22.10;99.90;;;;;;5040125;28;20199;-81
2023/06/19 03:41:35;;;;;;;0.10;0.10;;;22.20;99.90;;;;;;5042097;28;20979;-82
2023/06/19 03:44:01;;;;;;;0.10;0.10;;;22.10;99.90;;;;;;5042307;28;20261;-82
2023/06/19 03:46:26;;;;;;;0.10;0.10;;;22.10;99.90;;;;;;5043978;28;20279;-81
2023/06/19 03:48:52;;;;;;;0.10;0.10;;;22.10;99.90;;;;;;5042060;28;20209;-82
2023/06/19 03:51:17;;;;;;;0.10;0.10;;;22.20;99.90;;;;;;5042806;28;20185;-81
2023/06/19 03:53:43;;;;;;;0.10;0.10;;;22.20;99.90;;;;;;5040903;28;20566;-81
2023/06/19 03:56:11;;;;;;;0.10;0.10;;;22.30;99.90;;;;;;5040301;28;20556;-81
2023/06/19 03:58:37;;;;;;;0.10;0.10;;;22.30;99.90;;;;;;5038165;28;20193;-81
2023/06/19 04:01:03;;;;;;;0.10;0.10;;;22.30;99.90;;;;;;5036631;28;20241;-81
2023/06/19 04:03:28;;;;;;;0.10;0.10;;;22.30;99.90;;;;;;5037271;28;20193;-81
2023/06/19 04:05:54;;;;;;;0.10;0.10;;;22.20;99.90;;;;;;5039917;28;20213;-81
2023/06/19 04:08:19;;;;;;;0.10;0.10;;;22.30;99.90;;;;;;5040353;28;20262;-81
2023/06/19 04:10:45;;;;;;;0.10;0.10;;;22.20;99.90;;;;;;5039463;28;20251;-81
2023/06/19 04:13:12;;;;;;;0.10;0.10;;;22.30;99.90;;;;;;5040624;28;20178;-81
2023/06/19 04:15:38;;;;;;;0.10;0.10;;;22.20;99.90;;;;;;5039853;28;20204;-81
2023/06/19 04:18:03;;;;;;;0.10;0.10;;;22.30;99.90;;;;;;5038071;28;20183;-81
2023/06/19 04:20:29;;;;;;;0.10;0.10;;;22.40;99.90;;;;;;5041158;28;20690;-81
2023/06/19 04:22:54;;;;;;;0.10;0.10;;;22.40;99.90;;;;;;5045153;28;20193;-81
2023/06/19 04:25:20;;;;;;;0.10;0.10;;;22.50;99.90;;;;;;5044009;28;20231;-81
2023/06/19 04:27:45;;;;;;;0.10;0.10;;;22.50;99.90;;;;;;5044595;28;20186;-81
2023/06/19 04:30:12;;;;;;;0.10;0.10;;;22.60;99.90;;;;;;5044359;28;20625;-81
2023/06/19 04:32:40;;;;;;;0.10;0.10;;;22.80;99.90;;;;;;5045654;28;20195;-81
2023/06/19 04:35:08;;;;;;;0.10;0.10;;;22.80;99.90;;;;;;5050475;28;20186;-81
2023/06/19 04:37:33;;;;;;;0.10;0.10;;;22.90;99.90;;;;;;5045512;28;20279;-80
2023/06/19 04:39:59;;;;;;;0.10;0.10;;;22.90;99.90;;;;;;5048086;28;20253;-81
2023/06/19 04:42:26;;;;;;;0.10;0.10;;;22.90;99.90;;;;;;5046847;28;20196;-81
2023/06/19 04:44:52;;;;;;;0.10;0.10;;;23.10;99.90;;;;;;5046859;28;20182;-81
2023/06/19 04:47:19;;;;;;;0.10;0.10;;;23.40;99.90;;;;;;5048218;28;20170;-81
2023/06/19 04:49:45;;;;;;;0.10;0.10;;;23.60;99.90;;;;;;5046173;28;20271;-81
2023/06/19 04:52:11;;;;;;;0.10;0.10;;;23.90;99.90;;;;;;5046522;28;20658;-81
2023/06/19 04:54:36;;;;;;;0.10;0.10;;;24.10;99.90;;;;;;5045720;28;20208;-81
2023/06/19 04:57:02;;;;;;;0.10;0.10;;;24.10;99.90;;;;;;5044996;28;20185;-81
2023/06/19 04:59:30;;;;;;;0.10;0.10;;;24.10;99.90;;;;;;5044852;28;20220;-81
2023/06/19 05:01:56;;;;;;;0.10;0.10;;;24.10;99.90;;;;;;5045662;28;20280;-81
2023/06/19 05:04:24;;;;;;;0.10;0.10;;;24.40;99.90;;;;;;5045778;28;20247;-81
2023/06/19 05:06:50;;;;;;;0.10;0.10;;;24.40;99.90;;;;;;5041908;28;20235;-81
2023/06/19 05:09:16;;;;;;;0.10;0.10;;;24.50;99.90;;;;;;5042859;28;20296;-81
2023/06/19 05:11:41;;;;;;;0.10;0.10;;;24.50;99.90;;;;;;5042865;28;20745;-81
2023/06/19 05:14:07;;;;;;;0.10;0.10;;;24.60;99.90;;;;;;5045078;28;20260;-81
2023/06/19 05:16:33;;;;;;;0.10;0.10;;;24.70;99.90;;;;;;5045761;28;20828;-81
2023/06/19 05:18:59;;;;;;;0.10;0.10;;;24.60;99.90;;;;;;5044943;28;20247;-81
2023/06/19 05:21:25;;;;;;;0.10;0.10;;;24.60;99.90;;;;;;5043336;28;20220;-81
2023/06/19 05:23:52;;;;;;;0.10;0.10;;;24.60;99.90;;;;;;5042856;28;20182;-81
2023/06/19 05:26:18;;;;;;;0.10;0.10;;;24.60;99.90;;;;;;5045003;28;20193;-81
2023/06/19 05:28:44;;;;;;;0.10;0.10;;;24.60;99.90;;;;;;5044621;28;20674;-81
2023/06/19 05:31:09;;;;;;;0.10;0.10;;;24.60;99.90;;;;;;5043793;28;20186;-82
2023/06/19 05:33:35;;;;;;;0.10;0.10;;;24.50;99.90;;;;;;5040136;28;20189;-81
2023/06/19 05:36:01;;;;;;;0.37;0.37;;;24.60;99.90;;;;;;5040093;28;20192;-81
2023/06/19 05:38:28;;;;;;;0.10;0.10;;;24.60;99.90;;;;;;5041793;28;20598;-81
2023/06/19 05:40:53;;;;;;;0.10;0.10;;;24.80;99.90;;;;;;5044353;28;20734;-81
2023/06/19 05:43:19;;;;;;;0.10;0.10;;;24.80;99.90;;;;;;5046743;28;20186;-82
2023/06/19 05:45:45;;;;;;;0.10;0.10;;;24.90;99.90;;;;;;5046783;28;20198;-81
2023/06/19 05:48:10;;;;;;;0.10;0.10;;;24.90;99.90;;;;;;5053296;28;20181;-81
2023/06/19 05:50:36;;;;;;;0.10;0.10;;;25.00;99.90;;;;;;5045873;28;20205;-81
2023/06/19 05:53:02;;;;;;;0.10;0.10;;;25.00;99.90;;;;;;5046024;28;20178;-81
2023/06/19 05:55:27;;;;;;;0.10;0.10;;;24.80;99.90;;;;;;5047050;28;20235;-81
2023/06/19 05:57:53;;;;;;;0.10;0.10;;;25.00;99.90;;;;;;5044378;28;20186;-81
2023/06/19 06:00:20;;;;;;;0.10;0.10;;;25.20;99.90;;;;;;5045430;28;21119;-81
2023/06/19 06:02:45;;;;;;;0.10;0.10;;;25.20;99.90;;;;;;5045224;28;20228;-81
2023/06/19 06:05:11;;;;;;;0.10;0.10;;;25.30;99.90;;;;;;5046132;28;20209;-81
2023/06/19 06:07:37;;;;;;;0.10;0.10;;;25.40;99.90;;;;;;5044595;28;20177;-81
2023/06/19 06:10:03;;;;;;;0.10;0.10;;;25.40;99.90;;;;;;5044181;28;20705;-81
2023/06/19 06:12:28;;;;;;;0.10;0.10;;;25.50;99.90;;;;;;5044510;28;20185;-81
2023/06/19 06:14:54;;;;;;;0.10;0.10;;;25.70;99.90;;;;;;5044707;28;20185;-81
2023/06/19 06:17:19;;;;;;;0.10;0.10;;;25.70;99.90;;;;;;5042462;28;20860;-81
2023/06/19 06:19:45;;;;;;;0.10;0.10;;;25.70;99.90;;;;;;5042845;28;20731;-81
2023/06/19 06:22:11;;;;;;;0.10;0.10;;;25.50;99.90;;;;;;5041174;28;20230;-81
2023/06/19 06:24:36;;;;;;;0.10;0.10;;;25.50;99.90;;;;;;5042124;28;20683;-81
2023/06/19 06:27:02;;;;;;;0.10;0.10;;;25.60;99.90;;;;;;5045081;28;20209;-81
2023/06/19 06:29:28;;;;;;;0.10;0.10;;;25.30;99.90;;;;;;5043676;28;20209;-81
2023/06/19 06:32:03;;;;;;;0.10;0.10;;;25.10;99.90;;;;;;5043482;28;20182;-81
2023/06/19 06:34:29;;;;;;;0.10;0.10;;;24.90;99.90;;;;;;5042259;28;20181;-81
2023/06/19 06:36:54;;;;;;;0.10;0.10;;;25.00;99.90;;;;;;5043093;28;21148;-81
2023/06/19 06:39:20;;;;;;;0.10;0.10;;;25.00;99.90;;;;;;5040685;28;20209;-81
2023/06/19 06:41:45;;;;;;;0.10;0.10;;;25.20;99.90;;;;;;5039905;28;20189;-81
2023/06/19 06:44:11;;;;;;;0.10;0.10;;;25.20;99.90;;;;;;5041437;28;20665;-81
2023/06/19 06:46:37;;;;;;;0.10;0.10;;;25.50;99.90;;;;;;5041374;28;20209;-80
2023/06/19 06:49:02;;;;;;;0.10;0.10;;;25.60;99.90;;;;;;5042999;28;20371;-81
2023/06/19 06:51:28;;;;;;;0.10;0.10;;;25.80;99.90;;;;;;5040913;28;20204;-81
2023/06/19 06:53:53;;;;;;;0.10;0.10;;;25.90;99.90;;;;;;5040858;28;20769;-81
2023/06/19 06:56:19;;;;;;;0.10;0.10;;;26.00;99.90;;;;;;5041613;28;20189;-81
2023/06/19 06:58:46;;;;;;;0.10;0.10;;;26.00;99.90;;;;;;5040434;28;20192;-80
2023/06/19 07:01:12;;;;;;;0.10;0.10;;;26.10;99.90;;;;;;5041434;28;20177;-81
2023/06/19 07:03:39;;;;;;;0.10;0.10;;;26.20;99.90;;;;;;5044944;28;20551;-81
2023/06/19 07:06:05;;;;;;;0.10;0.10;;;26.40;99.90;;;;;;5049051;28;20214;-81
2023/06/19 07:08:30;;;;;;;0.10;0.10;;;26.60;99.90;;;;;;5039314;28;20193;-81
2023/06/19 07:10:56;;;;;;;0.10;0.10;;;26.30;99.90;;;;;;5039194;28;20212;-81
2023/06/19 07:13:21;;;;;;;0.10;0.10;;;26.40;99.90;;;;;;5045408;28;20212;-81
2023/06/19 07:15:47;;;;;;;0.10;0.10;;;26.60;99.90;;;;;;5041360;28;20280;-81
2023/06/19 07:18:12;;;;;;;0.10;0.10;;;26.70;99.90;;;;;;5041297;28;20664;-82
2023/06/19 07:20:38;;;;;;;0.10;0.10;;;26.80;99.90;;;;;;5045770;28;20221;-80
2023/06/19 07:23:04;;;;;;;0.10;0.10;;;26.90;99.90;;;;;;5042439;28;20512;-80
2023/06/19 07:25:29;;;;;;;0.10;0.10;;;26.80;99.90;;;;;;5043688;28;20259;-80
2023/06/19 07:27:55;;;;;;;0.10;0.10;;;26.90;99.90;;;;;;5043758;28;20227;-80
2023/06/19 07:30:20;;;;;;;0.10;0.10;;;27.00;99.90;;;;;;5043714;28;20339;-80
2023/06/19 07:32:46;;;;;;;0.10;0.10;;;27.00;99.90;;;;;;5043298;28;20180;-80
2023/06/19 07:35:12;;;;;;;0.10;0.10;;;27.20;99.90;;;;;;5043925;28;20196;-80
2023/06/19 07:37:38;;;;;;;0.10;0.10;;;27.50;99.90;;;;;;5040008;28;20186;-80
2023/06/19 07:40:04;;;;;;;0.10;0.10;;;27.60;99.90;;;;;;5041421;28;20202;-80
2023/06/19 07:42:29;;;;;;;0.10;0.10;;;27.50;99.90;;;;;;5040816;28;20296;-80
2023/06/19 07:44:55;;;;;;;0.10;0.10;;;27.70;99.90;;;;;;5040418;28;21185;-80
2023/06/19 07:47:20;;;;;;;0.10;0.10;;;27.80;99.90;;;;;;5041757;28;20181;-80
2023/06/19 07:49:46;;;;;;;0.10;0.10;;;27.90;99.90;;;;;;5044318;28;20213;-80
2023/06/19 07:52:13;;;;;;;0.10;0.10;;;27.90;99.90;;;;;;5032913;28;20202;-80
2023/06/19 07:54:56;;;;;;;0.10;0.10;;;27.90;99.90;;;;;;5038602;28;20174;-80
2023/06/19 07:57:23;;;;;;;0.10;0.10;;;28.00;99.90;;;;;;5039277;28;20182;-80
2023/06/19 07:59:49;;;;;;;0.10;0.10;;;28.00;99.90;;;;;;5039216;28;20236;-80
2023/06/19 08:02:15;;;;;;;0.10;0.10;;;28.20;99.90;;;;;;5039498;28;20177;-79
2023/06/19 08:04:40;;;;;;;0.10;0.10;;;28.40;99.90;;;;;;5005522;28;1039259;-80
2023/06/19 08:07:06;;;;;;;0.10;0.10;;;28.40;99.90;;;;;;5038079;28;20474;-80
2023/06/19 08:09:33;;;;;;;0.10;0.10;;;28.60;99.90;;;;;;5039177;28;20335;-80
2023/06/19 08:11:58;;;;;;;0.10;0.10;;;28.70;99.90;;;;;;5037139;28;20178;-80
2023/06/19 08:14:24;;;;;;;0.28;0.28;;;28.80;99.90;;;;;;5040622;28;20192;-80
2023/06/19 08:16:49;;;;;;;0.10;0.10;;;28.90;99.90;;;;;;5036402;28;20186;-80
2023/06/19 08:19:15;;;;;;;0.10;0.10;;;29.00;99.90;;;;;;5041150;28;20210;-80
2023/06/19 08:21:40;;;;;;;0.10;0.10;;;29.10;99.90;;;;;;5041769;28;20793;-80
2023/06/19 08:24:06;;;;;;;0.10;0.10;;;29.40;99.90;;;;;;5041490;28;20182;-80
2023/06/19 08:26:32;;;;;;;0.10;0.10;;;29.30;99.90;;;;;;5040566;28;20217;-80
2023/06/19 08:28:57;;;;;;;0.10;0.10;;;29.30;99.90;;;;;;5040111;28;20644;-80
2023/06/19 08:31:27;;;;;;;0.10;0.10;;;28.90;99.90;;;;;;5048266;28;20193;-80
2023/06/19 08:33:53;;;;;;;0.10;0.10;;;28.70;99.90;;;;;;5044903;28;20179;-80
2023/06/19 08:36:19;;;;;;;0.10;0.10;;;28.60;99.90;;;;;;5043714;28;20185;-80
2023/06/19 08:38:47;;;;;;;0.10;0.10;;;28.50;99.90;;;;;;5042005;28;20197;-80
2023/06/19 08:41:12;;;;;;;0.10;0.10;;;28.50;99.90;;;;;;5042862;28;20185;-80
2023/06/19 08:43:38;;;;;;;0.10;0.10;;;28.40;99.90;;;;;;5044240;28;20273;-80
2023/06/19 08:46:11;;;;;;;0.10;0.10;;;28.10;99.90;;;;;;5040702;28;20790;-80
2023/06/19 08:48:37;;;;;;;0.10;0.10;;;27.90;99.90;;;;;;5041516;28;20221;-80
2023/06/19 08:51:04;;;;;;;0.10;0.10;;;27.70;99.90;;;;;;5045501;28;20186;-80
2023/06/19 08:53:37;;;;;;;0.10;0.10;;;27.80;99.90;;;;;;5042675;28;20189;-80
2023/06/19 08:56:03;;;;;;;0.10;0.10;;;27.90;99.90;;;;;;5049476;28;20655;-80
2023/06/19 08:58:29;;;;;;;0.10;0.10;;;27.90;99.90;;;;;;5036209;28;20227;-80
2023/06/19 09:00:57;;;;;;;0.10;0.10;;;27.80;99.90;;;;;;5038554;28;20205;-80
2023/06/19 09:03:23;;;;;;;0.10;0.10;;;27.80;99.90;;;;;;5037830;28;20240;-80
2023/06/19 09:05:52;;;;;;;0.10;0.10;;;27.70;99.90;;;;;;5040492;28;20293;-80
2023/06/19 09:08:18;;;;;;;0.10;0.10;;;27.80;99.90;;;;;;5061796;28;20602;-80
2023/06/19 09:10:59;;;;;;;0.10;0.10;;;27.70;99.90;;;;;;5043442;28;20206;-80
2023/06/19 09:13:24;;;;;;;0.10;0.10;;;27.90;99.90;;;;;;5042695;28;20181;-80
2023/06/19 09:16:02;;;;;;;0.10;0.10;;;28.20;99.90;;;;;;5045162;28;20182;-80
2023/06/19 09:18:30;;;;;;;0.10;0.10;;;28.40;99.90;;;;;;5041935;28;20276;-80
2023/06/19 09:20:55;;;;;;;0.10;0.10;;;28.80;99.90;;;;;;5044406;28;20247;-80
2023/06/19 09:23:21;;;;;;;0.10;0.10;;;28.90;99.90;;;;;;5045419;28;20174;-80
2023/06/19 09:25:48;;;;;;;0.10;0.10;;;29.30;99.90;;;;;;5045192;28;20290;-80
2023/06/19 09:28:22;;;;;;;0.10;0.10;;;29.30;99.90;;;;;;5043257;28;20181;-80
2023/06/19 09:30:56;;;;;;;0.10;0.10;;;29.40;99.90;;;;;;5040584;28;20297;-80
2023/06/19 09:33:22;;;;;;;0.10;0.10;;;29.70;99.90;;;;;;5043142;28;21195;-80
2023/06/19 09:35:50;;;;;;;0.10;0.10;;;29.60;99.90;;;;;;5039966;28;20205;-80
2023/06/19 09:38:18;;;;;;;0.10;0.10;;;29.70;99.90;;;;;;5042394;28;20182;-80
2023/06/19 09:40:47;;;;;;;0.10;0.10;;;29.50;99.90;;;;;;5044184;28;20205;-80
2023/06/19 09:43:19;;;;;;;0.10;0.10;;;30.00;99.90;;;;;;5042872;28;20208;-80
2023/06/19 09:45:49;;;;;;;0.10;0.10;;;30.00;99.90;;;;;;5040979;28;20205;-80
2023/06/19 09:48:20;;;;;;;0.10;0.10;;;30.20;99.90;;;;;;5040220;28;20185;-80
2023/06/19 09:50:50;;;;;;;0.10;0.10;;;30.40;99.90;;;;;;5042370;28;20206;-79
2023/06/19 09:53:17;;;;;;;0.10;0.10;;;30.40;99.90;;;;;;5044372;28;20285;-79
2023/06/19 09:55:43;;;;;;;0.10;0.10;;;30.90;99.90;;;;;;5043162;28;20580;-79
2023/06/19 09:58:09;;;;;;;0.10;0.10;;;31.00;99.90;;;;;;5043779;28;20185;-79
2023/06/19 10:00:37;;;;;;;0.10;0.10;;;31.00;99.90;;;;;;5045635;28;20221;-79
2023/06/19 10:03:05;;;;;;;0.10;0.10;;;31.10;99.90;;;;;;5046796;28;20710;-79
2023/06/19 10:05:31;;;;;;;0.10;0.10;;;30.80;99.90;;;;;;5044098;28;20213;-79
2023/06/19 10:07:59;;;;;;;0.10;0.10;;;30.80;99.90;;;;;;5042332;28;20190;-83
2023/06/19 10:10:27;;;;;;;0.10;0.10;;;30.60;99.90;;;;;;5042471;28;20194;-80
2023/06/19 10:12:56;;;;;;;0.10;0.10;;;30.20;99.90;;;;;;5044630;28;20256;-80
2023/06/19 10:15:25;;;;;;;0.10;0.10;;;30.20;99.90;;;;;;5044128;28;20174;-80
2023/06/19 10:17:52;;;;;;;0.10;0.10;;;30.00;99.90;;;;;;5038613;28;20277;-80
2023/06/19 10:20:31;;;;;;;0.10;0.10;;;29.70;99.90;;;;;;5039457;28;20232;-80
2023/06/19 10:23:03;;;;;;;0.10;0.10;;;29.60;99.90;;;;;;5042308;28;20619;-80
2023/06/19 10:25:34;;;;;;;0.10;0.10;;;29.60;99.90;;;;;;5038126;28;20202;-80
2023/06/19 10:28:00;;;;;;;0.10;0.10;;;29.80;99.90;;;;;;5042462;28;20169;-80
2023/06/19 10:30:27;;;;;;;0.10;0.10;;;29.80;99.90;;;;;;5039994;28;20258;-80
2023/06/19 10:32:53;;;;;;;0.10;0.10;;;29.70;99.90;;;;;;5043102;28;20189;-80
2023/06/19 10:35:23;;;;;;;0.10;0.10;;;29.80;99.90;;;;;;5042004;28;20197;-80
2023/06/19 10:37:50;;;;;;;0.10;0.10;;;29.90;99.90;;;;;;5041159;28;20181;-80
2023/06/19 10:40:16;;;;;;;0.10;0.10;;;29.90;99.90;;;;;;5040206;28;20201;-80
2023/06/19 10:42:43;;;;;;;0.10;0.10;;;29.90;99.90;;;;;;5042092;28;20650;-80
2023/06/19 10:45:12;;;;;;;0.10;0.10;;;29.90;99.90;;;;;;5040061;28;20170;-80
2023/06/19 10:47:39;;;;;;;0.10;0.10;;;29.90;99.90;;;;;;5040645;28;21302;-80
2023/06/19 10:50:12;;;;;;;0.10;0.10;;;29.90;99.90;;;;;;5040411;28;20201;-80
2023/06/19 10:52:40;;;;;;;0.10;0.10;;;29.90;99.90;;;;;;5040453;28;20188;-80
2023/06/19 10:55:06;;;;;;;0.10;0.10;;;30.00;99.90;;;;;;5052214;28;20174;-80
2023/06/19 10:57:32;;;;;;;0.10;0.10;;;30.30;99.90;;;;;;5042037;28;20181;-80
2023/06/19 10:59:58;;;;;;;0.10;0.10;;;30.50;99.90;;;;;;5051562;28;20198;-80
2023/06/19 11:02:25;;;;;;;0.10;0.10;;;30.60;99.90;;;;;;5040244;28;20193;-80
2023/06/19 11:04:53;;;;;;;0.10;0.10;;;30.90;99.90;;;;;;5045474;28;20282;-80
2023/06/19 11:07:19;;;;;;;0.10;0.10;;;31.00;99.90;;;;;;5044188;28;20304;-80
2023/06/19 11:09:44;;;;;;;0.10;0.10;;;31.20;99.90;;;;;;5045427;28;20260;-80
2023/06/19 11:12:11;;;;;;;0.10;0.10;;;31.00;99.90;;;;;;5047240;28;20178;-80
2023/06/19 11:14:39;;;;;;;0.10;0.10;;;30.80;99.90;;;;;;5041957;28;20185;-80
2023/06/19 11:17:09;;;;;;;0.10;0.10;;;31.10;99.90;;;;;;5045387;28;20660;-80
2023/06/19 11:19:36;;;;;;;0.10;0.10;;;30.80;99.90;;;;;;5044069;28;20198;-80
2023/06/19 11:22:03;;;;;;;0.10;0.10;;;31.30;99.90;;;;;;5044186;28;20173;-80
2023/06/19 11:24:29;;;;;;;0.10;0.10;;;31.60;99.90;;;;;;5040223;28;20225;-80
2023/06/19 11:26:56;;;;;;;0.10;0.10;;;31.70;99.90;;;;;;5041150;28;20251;-80
2023/06/19 11:29:24;;;;;;;0.10;0.10;;;31.40;99.90;;;;;;5038816;28;20201;-81
2023/06/19 11:31:53;;;;;;;0.10;0.10;;;31.90;99.90;;;;;;5039215;28;20193;-82
2023/06/19 11:34:19;;;;;;;0.10;0.10;;;32.10;99.90;;;;;;5043006;28;20643;-80
2023/06/19 11:36:45;;;;;;;0.10;0.10;;;32.20;99.90;;;;;;5044230;28;20232;-81
2023/06/19 11:39:15;;;;;;;0.10;0.10;;;32.30;99.90;;;;;;5040585;28;20364;-81
2023/06/19 11:41:43;;;;;;;0.10;0.10;;;32.60;99.90;;;;;;5044645;28;20269;-81
2023/06/19 11:44:11;;;;;;;0.10;0.10;;;32.70;99.90;;;;;;5046719;28;20189;-81
2023/06/19 11:46:37;;;;;;;0.10;0.10;;;32.80;99.90;;;;;;5044830;28;20804;-82
2023/06/19 11:49:14;;;;;;;0.10;0.10;;;33.20;99.90;;;;;;5040386;28;20220;-80
2023/06/19 11:51:40;;;;;;;0.10;0.10;;;33.40;99.90;;;;;;5043678;28;20192;-80
2023/06/19 11:54:08;;;;;;;0.10;0.10;;;33.50;99.90;;;;;;5045229;28;20189;-82
2023/06/19 11:56:34;;;;;;;0.10;0.10;;;33.60;99.90;;;;;;5053542;28;20185;-81
2023/06/19 11:59:00;;;;;;;0.10;0.10;;;33.50;99.90;;;;;;5044590;28;20702;-83
2023/06/19 12:01:26;;;;;;;0.10;0.10;;;32.80;99.90;;;;;;5041577;28;20190;-80
2023/06/19 12:03:51;;;;;;;0.10;0.10;;;32.60;99.90;;;;;;5043317;28;20269;-80
2023/06/19 12:06:18;;;;;;;0.10;0.10;;;32.70;99.90;;;;;;5042103;28;20209;-80
2023/06/19 12:08:44;;;;;;;0.10;0.10;;;32.90;99.90;;;;;;5044955;28;20540;-80
2023/06/19 12:11:10;;;;;;;0.10;0.10;;;32.80;99.90;;;;;;5043744;28;20182;-81
2023/06/19 12:13:36;;;;;;;0.10;0.10;;;32.80;99.90;;;;;;5045030;28;20182;-80
2023/06/19 12:16:01;;;;;;;0.10;0.10;;;33.10;99.90;;;;;;5045103;28;20189;-80
2023/06/19 12:18:27;;;;;;;0.10;0.10;;;33.70;99.90;;;;;;5043409;28;20226;-81
2023/06/19 12:20:52;;;;;;;0.10;0.10;;;33.70;99.90;;;;;;5043400;28;20210;-81
2023/06/19 12:23:19;;;;;;;0.10;0.10;;;33.90;99.90;;;;;;5041264;28;20185;-81
2023/06/19 12:25:44;;;;;;;0.10;0.10;;;33.50;99.90;;;;;;5041868;28;20193;-80
2023/06/19 12:28:11;;;;;;;0.10;0.10;;;33.20;99.90;;;;;;5043601;28;20200;-80
2023/06/19 12:30:37;;;;;;;0.10;0.10;;;32.40;99.90;;;;;;5040727;28;20275;-81
2023/06/19 12:33:03;;;;;;;0.10;0.10;;;32.50;99.90;;;;;;5050028;28;20255;-80
2023/06/19 12:35:29;;;;;;;0.10;0.10;;;32.40;99.90;;;;;;5033185;28;20195;-81
2023/06/19 12:37:55;;;;;;;0.10;0.10;;;32.40;99.90;;;;;;5041153;28;20182;-80
2023/06/19 12:40:20;;;;;;;0.10;0.10;;;32.80;99.90;;;;;;5038799;28;20216;-81
2023/06/19 12:42:46;;;;;;;0.10;0.10;;;31.70;99.90;;;;;;5043702;28;20280;-80
2023/06/19 12:45:12;;;;;;;0.10;0.10;;;31.90;99.90;;;;;;5046215;28;20204;-80